sensor_id;sensor_type;location;lat;lon;timestamp;temperature;humidity
72646;DHT22;60687;53.876;10.674;2023-06-14T00:00:44;16.50;91.50
72646;DHT22;60687;53.876;10.674;2023-06-14T00:10:48;16.40;91.90
72646;DHT22;60687;53.876;10.674;2023-06-14T00:20:52;16.40;92.10
72646;DHT22;60687;53.876;10.674;2023-06-14T00:30:54;16.30;91.30
72646;DHT22;60687;53.876;10.674;2023-06-14T00:40:58;16.20;91.90
72646;DHT22;60687;53.876;10.674;2023-06-14T00:51:01;16.20;91.60
72646;DHT22;60687;53.876;10.674;2023-06-14T01:01:06;16.20;91.60
72646;DHT22;60687;53.876;10.674;2023-06-14T01:11:13;16.10;91.30
72646;DHT22;60687;53.876;10.674;2023-06-14T01:21:22;16.00;91.40
72646;DHT22;60687;53.876;10.674;2023-06-14T01:31:26;16.00;91.70
72646;DHT22;60687;53.876;10.674;2023-06-14T01:41:31;15.90;92.70
72646;DHT22;60687;53.876;10.674;2023-06-14T01:51:34;15.90;91.90
72646;DHT22;60687;53.876;10.674;2023-06-14T02:01:37;15.80;92.50
72646;DHT22;60687;53.876;10.674;2023-06-14T02:11:41;15.70;93.00
72646;DHT22;60687;53.876;10.674;2023-06-14T02:21:43;15.70;93.40
72646;DHT22;60687;53.876;10.674;2023-06-14T02:31:49;15.60;93.90
72646;DHT22;60687;53.876;10.674;2023-06-14T02:41:51;15.60;93.90
72646;DHT22;60687;53.876;10.674;2023-06-14T02:51:56;15.50;94.50
72646;DHT22;60687;53.876;10.674;2023-06-14T03:01:59;15.50;94.30
72646;DHT22;60687;53.876;10.674;2023-06-14T03:12:03;15.50;93.90
72646;DHT22;60687;53.876;10.674;2023-06-14T03:22:06;15.50;93.40
72646;DHT22;60687;53.876;10.674;2023-06-14T03:32:11;15.50;93.40
72646;DHT22;60687;53.876;10.674;2023-06-14T03:42:16;15.40;94.40
72646;DHT22;60687;53.876;10.674;2023-06-14T03:52:22;15.40;94.30
72646;DHT22;60687;53.876;10.674;2023-06-14T04:02:24;15.40;95.10
72646;DHT22;60687;53.876;10.674;2023-06-14T04:12:31;15.40;94.90
72646;DHT22;60687;53.876;10.674;2023-06-14T04:22:34;15.50;95.20
72646;DHT22;60687;53.876;10.674;2023-06-14T04:32:39;15.50;96.10
72646;DHT22;60687;53.876;10.674;2023-06-14T04:42:46;15.60;96.10
72646;DHT22;60687;53.876;10.674;2023-06-14T04:52:54;15.70;95.90
72646;DHT22;60687;53.876;10.674;2023-06-14T05:02:58;15.70;95.10
72646;DHT22;60687;53.876;10.674;2023-06-14T05:13:03;15.90;95.00
72646;DHT22;60687;53.876;10.674;2023-06-14T05:23:06;16.00;94.80
72646;DHT22;60687;53.876;10.674;2023-06-14T05:33:10;16.20;93.60
72646;DHT22;60687;53.876;10.674;2023-06-14T05:43:12;16.40;93.10
72646;DHT22;60687;53.876;10.674;2023-06-14T05:53:16;16.60;91.80
72646;DHT22;60687;53.876;10.674;2023-06-14T06:03:18;16.90;91.20
72646;DHT22;60687;53.876;10.674;2023-06-14T06:13:23;17.20;89.00
72646;DHT22;60687;53.876;10.674;2023-06-14T06:23:25;17.50;87.00
72646;DHT22;60687;53.876;10.674;2023-06-14T06:33:29;17.80;83.00
72646;DHT22;60687;53.876;10.674;2023-06-14T06:43:31;18.10;81.20
72646;DHT22;60687;53.876;10.674;2023-06-14T06:53:35;18.40;78.40
72646;DHT22;60687;53.876;10.674;2023-06-14T07:03:37;18.80;76.70
72646;DHT22;60687;53.876;10.674;2023-06-14T07:13:42;19.20;73.70
72646;DHT22;60687;53.876;10.674;2023-06-14T07:23:44;19.50;73.00
72646;DHT22;60687;53.876;10.674;2023-06-14T07:33:49;19.80;65.70
72646;DHT22;60687;53.876;10.674;2023-06-14T07:43:52;20.10;64.40
72646;DHT22;60687;53.876;10.674;2023-06-14T07:54:00;20.40;61.30
72646;DHT22;60687;53.876;10.674;2023-06-14T08:04:09;20.50;61.70
72646;DHT22;60687;53.876;10.674;2023-06-14T08:14:13;20.80;65.80
72646;DHT22;60687;53.876;10.674;2023-06-14T08:24:17;21.00;60.80
72646;DHT22;60687;53.876;10.674;2023-06-14T08:34:21;21.10;60.90
72646;DHT22;60687;53.876;10.674;2023-06-14T08:44:24;21.20;63.30
72646;DHT22;60687;53.876;10.674;2023-06-14T08:54:28;21.30;60.20
72646;DHT22;60687;53.876;10.674;2023-06-14T09:04:32;21.50;57.30
72646;DHT22;60687;53.876;10.674;2023-06-14T09:14:35;21.50;57.80
72646;DHT22;60687;53.876;10.674;2023-06-14T09:24:41;21.70;58.50
72646;DHT22;60687;53.876;10.674;2023-06-14T09:34:48;21.80;53.70
72646;DHT22;60687;53.876;10.674;2023-06-14T09:44:51;22.00;53.50
72646;DHT22;60687;53.876;10.674;2023-06-14T09:54:55;22.10;53.90
72646;DHT22;60687;53.876;10.674;2023-06-14T10:05:06;22.20;50.90
72646;DHT22;60687;53.876;10.674;2023-06-14T10:15:17;22.30;49.40
72646;DHT22;60687;53.876;10.674;2023-06-14T10:25:28;22.40;51.70
72646;DHT22;60687;53.876;10.674;2023-06-14T10:35:32;22.50;51.30
72646;DHT22;60687;53.876;10.674;2023-06-14T10:45:35;22.60;51.70
72646;DHT22;60687;53.876;10.674;2023-06-14T10:55:41;22.70;51.40
72646;DHT22;60687;53.876;10.674;2023-06-14T11:05:49;22.90;49.10
72646;DHT22;60687;53.876;10.674;2023-06-14T11:15:54;22.90;48.20
72646;DHT22;60687;53.876;10.674;2023-06-14T11:25:58;23.10;48.30
72646;DHT22;60687;53.876;10.674;2023-06-14T11:36:05;23.00;45.30
72646;DHT22;60687;53.876;10.674;2023-06-14T11:46:13;23.20;45.50
72646;DHT22;60687;53.876;10.674;2023-06-14T11:56:17;23.20;43.10
72646;DHT22;60687;53.876;10.674;2023-06-14T12:06:28;23.20;43.40
72646;DHT22;60687;53.876;10.674;2023-06-14T12:16:37;23.10;40.10
72646;DHT22;60687;53.876;10.674;2023-06-14T12:26:40;23.10;41.00
72646;DHT22;60687;53.876;10.674;2023-06-14T12:36:44;23.00;39.60
72646;DHT22;60687;53.876;10.674;2023-06-14T12:46:47;22.90;40.00
72646;DHT22;60687;53.876;10.674;2023-06-14T12:56:53;22.80;40.50
72646;DHT22;60687;53.876;10.674;2023-06-14T13:06:56;22.90;38.40
72646;DHT22;60687;53.876;10.674;2023-06-14T13:16:59;22.90;38.00
72646;DHT22;60687;53.876;10.674;2023-06-14T13:27:02;22.80;37.50
72646;DHT22;60687;53.876;10.674;2023-06-14T13:37:06;22.40;38.20
72646;DHT22;60687;53.876;10.674;2023-06-14T13:47:10;22.50;37.10
72646;DHT22;60687;53.876;10.674;2023-06-14T13:57:16;22.30;38.00
72646;DHT22;60687;53.876;10.674;2023-06-14T14:07:21;22.10;39.70
72646;DHT22;60687;53.876;10.674;2023-06-14T14:17:26;22.00;39.10
72646;DHT22;60687;53.876;10.674;2023-06-14T14:27:28;21.80;40.00
72646;DHT22;60687;53.876;10.674;2023-06-14T14:37:32;21.80;39.70
72646;DHT22;60687;53.876;10.674;2023-06-14T14:47:35;21.80;39.50
72646;DHT22;60687;53.876;10.674;2023-06-14T14:57:39;21.70;38.80
72646;DHT22;60687;53.876;10.674;2023-06-14T15:07:41;21.60;38.80
72646;DHT22;60687;53.876;10.674;2023-06-14T15:17:46;21.60;39.20
72646;DHT22;60687;53.876;10.674;2023-06-14T15:27:49;21.50;39.40
72646;DHT22;60687;53.876;10.674;2023-06-14T15:37:58;21.50;37.40
72646;DHT22;60687;53.876;10.674;2023-06-14T15:48:14;21.40;37.00
72646;DHT22;60687;53.876;10.674;2023-06-14T15:58:19;21.50;37.50
72646;DHT22;60687;53.876;10.674;2023-06-14T16:08:21;21.30;36.50
72646;DHT22;60687;53.876;10.674;2023-06-14T16:18:25;21.30;36.80
72646;DHT22;60687;53.876;10.674;2023-06-14T16:28:27;21.20;36.50
72646;DHT22;60687;53.876;10.674;2023-06-14T16:38:30;21.10;36.80
72646;DHT22;60687;53.876;10.674;2023-06-14T16:48:33;21.00;36.70
72646;DHT22;60687;53.876;10.674;2023-06-14T16:58:38;20.90;37.20
72646;DHT22;60687;53.876;10.674;2023-06-14T17:08:41;20.90;37.10
72646;DHT22;60687;53.876;10.674;2023-06-14T17:18:45;20.80;36.90
72646;DHT22;60687;53.876;10.674;2023-06-14T17:28:47;20.80;37.20
72646;DHT22;60687;53.876;10.674;2023-06-14T17:38:51;20.70;38.10
72646;DHT22;60687;53.876;10.674;2023-06-14T17:48:53;20.70;38.10
72646;DHT22;60687;53.876;10.674;2023-06-14T17:58:59;20.70;39.20
72646;DHT22;60687;53.876;10.674;2023-06-14T18:09:01;20.70;40.50
72646;DHT22;60687;53.876;10.674;2023-06-14T18:19:06;20.60;40.10
72646;DHT22;60687;53.876;10.674;2023-06-14T18:29:08;20.50;40.70
72646;DHT22;60687;53.876;10.674;2023-06-14T18:39:12;20.50;41.30
72646;DHT22;60687;53.876;10.674;2023-06-14T18:49:17;20.40;42.10
72646;DHT22;60687;53.876;10.674;2023-06-14T18:59:20;20.30;43.00
72646;DHT22;60687;53.876;10.674;2023-06-14T19:09:24;20.20;43.30
72646;DHT22;60687;53.876;10.674;2023-06-14T19:19:27;20.10;44.30
72646;DHT22;60687;53.876;10.674;2023-06-14T19:29:31;20.00;45.00
72646;DHT22;60687;53.876;10.674;2023-06-14T19:39:36;19.80;46.40
72646;DHT22;60687;53.876;10.674;2023-06-14T19:49:38;19.60;48.10
72646;DHT22;60687;53.876;10.674;2023-06-14T19:59:42;19.50;50.00
72646;DHT22;60687;53.876;10.674;2023-06-14T20:09:46;19.40;52.30
72646;DHT22;60687;53.876;10.674;2023-06-14T20:19:52;19.20;54.30
72646;DHT22;60687;53.876;10.674;2023-06-14T20:29:55;19.00;58.00
72646;DHT22;60687;53.876;10.674;2023-06-14T20:39:59;19.00;57.40
72646;DHT22;60687;53.876;10.674;2023-06-14T20:50:07;18.70;61.50
72646;DHT22;60687;53.876;10.674;2023-06-14T21:00:15;18.60;61.10
72646;DHT22;60687;53.876;10.674;2023-06-14T21:10:19;18.50;62.20
72646;DHT22;60687;53.876;10.674;2023-06-14T21:20:22;18.40;64.10
72646;DHT22;60687;53.876;10.674;2023-06-14T21:30:31;18.20;66.00
72646;DHT22;60687;53.876;10.674;2023-06-14T21:40:36;18.10;65.70
72646;DHT22;60687;53.876;10.674;2023-06-14T21:50:39;18.00;63.30
72646;DHT22;60687;53.876;10.674;2023-06-14T22:00:42;17.90;65.50
72646;DHT22;60687;53.876;10.674;2023-06-14T22:10:45;17.80;64.40
72646;DHT22;60687;53.876;10.674;2023-06-14T22:20:52;17.70;65.20
72646;DHT22;60687;53.876;10.674;2023-06-14T22:30:55;17.60;64.30
72646;DHT22;60687;53.876;10.674;2023-06-14T22:41:00;17.40;68.90
72646;DHT22;60687;53.876;10.674;2023-06-14T22:51:03;17.30;68.70
72646;DHT22;60687;53.876;10.674;2023-06-14T23:01:07;17.20;67.90
72646;DHT22;60687;53.876;10.674;2023-06-14T23:11:15;17.10;66.90
72646;DHT22;60687;53.876;10.674;2023-06-14T23:21:19;17.00;66.50
72646;DHT22;60687;53.876;10.674;2023-06-14T23:31:22;16.90;67.80
72646;DHT22;60687;53.876;10.674;2023-06-14T23:41:27;16.70;66.40
72646;DHT22;60687;53.876;10.674;2023-06-14T23:51:32;16.70;66.80
